sensor_id;sensor_type;location;lat;lon;timestamp;P1;durP1;ratioP1;P2;durP2;ratioP2
41653;SDS011;30790;52.030;7.110;2022-09-01T00:01:25;1.38;;;0.95;;
41653;SDS011;30790;52.030;7.110;2022-09-01T00:03:51;1.67;;;0.77;;
41653;SDS011;30790;52.030;7.110;2022-09-01T00:06:19;2.33;;;1.05;;
41653;SDS011;30790;52.030;7.110;2022-09-01T00:08:49;1.83;;;0.85;;
41653;SDS011;30790;52.030;7.110;2022-09-01T00:11:19;2.47;;;1.00;;
41653;SDS011;30790;52.030;7.110;2022-09-01T00:13:46;3.35;;;1.35;;
41653;SDS011;30790;52.030;7.110;2022-09-01T00:16:13;1.20;;;0.75;;
41653;SDS011;30790;52.030;7.110;2022-09-01T00:18:41;2.15;;;1.00;;
41653;SDS011;30790;52.030;7.110;2022-09-01T00:21:08;0.93;;;0.90;;
41653;SDS011;30790;52.030;7.110;2022-09-01T00:23:34;1.38;;;0.95;;
41653;SDS011;30790;52.030;7.110;2022-09-01T00:26:00;1.17;;;0.85;;
41653;SDS011;30790;52.030;7.110;2022-09-01T00:28:26;2.22;;;1.23;;
41653;SDS011;30790;52.030;7.110;2022-09-01T00:30:51;2.35;;;1.30;;
41653;SDS011;30790;52.030;7.110;2022-09-01T00:33:17;2.42;;;0.98;;
41653;SDS011;30790;52.030;7.110;2022-09-01T00:35:43;1.20;;;0.80;;
41653;SDS011;30790;52.030;7.110;2022-09-01T00:38:08;1.40;;;0.80;;
41653;SDS011;30790;52.030;7.110;2022-09-01T00:40:33;1.90;;;0.80;;
41653;SDS011;30790;52.030;7.110;2022-09-01T00:42:59;1.48;;;0.82;;
41653;SDS011;30790;52.030;7.110;2022-09-01T00:45:24;0.93;;;0.77;;
41653;SDS011;30790;52.030;7.110;2022-09-01T00:47:50;1.85;;;1.13;;
41653;SDS011;30790;52.030;7.110;2022-09-01T00:50:16;2.67;;;0.90;;
41653;SDS011;30790;52.030;7.110;2022-09-01T00:52:50;1.50;;;1.08;;
41653;SDS011;30790;52.030;7.110;2022-09-01T00:57:49;2.00;;;0.70;;
41653;SDS011;30790;52.030;7.110;2022-09-01T01:00:16;1.50;;;0.88;;
41653;SDS011;30790;52.030;7.110;2022-09-01T01:02:48;1.77;;;0.80;;
41653;SDS011;30790;52.030;7.110;2022-09-01T01:05:20;1.50;;;0.70;;
41653;SDS011;30790;52.030;7.110;2022-09-01T01:07:52;1.55;;;1.02;;
41653;SDS011;30790;52.030;7.110;2022-09-01T01:10:19;1.20;;;0.80;;
41653;SDS011;30790;52.030;7.110;2022-09-01T01:12:47;1.50;;;1.00;;
41653;SDS011;30790;52.030;7.110;2022-09-01T01:15:16;1.40;;;0.80;;
41653;SDS011;30790;52.030;7.110;2022-09-01T01:17:42;1.80;;;1.00;;
41653;SDS011;30790;52.030;7.110;2022-09-01T01:20:08;2.13;;;0.93;;
41653;SDS011;30790;52.030;7.110;2022-09-01T01:28:10;0.90;;;0.73;;
41653;SDS011;30790;52.030;7.110;2022-09-01T01:30:45;1.05;;;0.77;;
41653;SDS011;30790;52.030;7.110;2022-09-01T01:33:16;3.80;;;1.00;;
41653;SDS011;30790;52.030;7.110;2022-09-01T01:35:46;0.73;;;0.68;;
41653;SDS011;30790;52.030;7.110;2022-09-01T01:38:12;1.00;;;0.90;;
41653;SDS011;30790;52.030;7.110;2022-09-01T01:40:39;1.30;;;0.90;;
41653;SDS011;30790;52.030;7.110;2022-09-01T01:43:05;3.35;;;0.80;;
41653;SDS011;30790;52.030;7.110;2022-09-01T01:45:31;1.00;;;0.70;;
41653;SDS011;30790;52.030;7.110;2022-09-01T01:47:57;2.10;;;1.10;;
41653;SDS011;30790;52.030;7.110;2022-09-01T01:50:25;1.77;;;1.05;;
41653;SDS011;30790;52.030;7.110;2022-09-01T01:52:59;0.95;;;0.85;;
41653;SDS011;30790;52.030;7.110;2022-09-01T01:55:27;1.48;;;0.90;;
41653;SDS011;30790;52.030;7.110;2022-09-01T01:57:54;1.25;;;0.93;;
41653;SDS011;30790;52.030;7.110;2022-09-01T02:00:21;1.30;;;0.70;;
41653;SDS011;30790;52.030;7.110;2022-09-01T02:02:49;1.73;;;0.82;;
41653;SDS011;30790;52.030;7.110;2022-09-01T02:05:22;1.92;;;0.80;;
41653;SDS011;30790;52.030;7.110;2022-09-01T02:07:51;1.90;;;1.00;;
41653;SDS011;30790;52.030;7.110;2022-09-01T02:10:20;1.33;;;1.00;;
41653;SDS011;30790;52.030;7.110;2022-09-01T02:12:50;2.55;;;1.05;;
41653;SDS011;30790;52.030;7.110;2022-09-01T02:15:15;1.00;;;0.75;;
41653;SDS011;30790;52.030;7.110;2022-09-01T02:17:41;1.48;;;0.85;;
41653;SDS011;30790;52.030;7.110;2022-09-01T02:20:07;1.10;;;0.73;;
41653;SDS011;30790;52.030;7.110;2022-09-01T02:22:34;1.55;;;0.90;;
41653;SDS011;30790;52.030;7.110;2022-09-01T02:25:02;1.35;;;0.88;;
41653;SDS011;30790;52.030;7.110;2022-09-01T02:27:28;0.80;;;0.68;;
41653;SDS011;30790;52.030;7.110;2022-09-01T02:29:53;1.60;;;0.90;;
41653;SDS011;30790;52.030;7.110;2022-09-01T02:32:19;0.70;;;0.70;;
41653;SDS011;30790;52.030;7.110;2022-09-01T02:34:46;1.10;;;1.00;;
41653;SDS011;30790;52.030;7.110;2022-09-01T02:37:18;2.08;;;0.90;;
41653;SDS011;30790;52.030;7.110;2022-09-01T02:39:48;2.95;;;1.00;;
41653;SDS011;30790;52.030;7.110;2022-09-01T02:42:13;1.60;;;0.77;;
41653;SDS011;30790;52.030;7.110;2022-09-01T02:44:40;1.23;;;0.98;;
41653;SDS011;30790;52.030;7.110;2022-09-01T02:47:07;2.22;;;0.90;;
41653;SDS011;30790;52.030;7.110;2022-09-01T02:49:33;0.60;;;0.60;;
41653;SDS011;30790;52.030;7.110;2022-09-01T02:51:59;0.95;;;0.52;;
41653;SDS011;30790;52.030;7.110;2022-09-01T02:54:27;2.47;;;0.70;;
41653;SDS011;30790;52.030;7.110;2022-09-01T02:56:54;0.90;;;0.73;;
41653;SDS011;30790;52.030;7.110;2022-09-01T02:59:21;0.85;;;0.68;;
41653;SDS011;30790;52.030;7.110;2022-09-01T03:01:49;1.17;;;0.73;;
41653;SDS011;30790;52.030;7.110;2022-09-01T03:04:16;1.52;;;0.80;;
41653;SDS011;30790;52.030;7.110;2022-09-01T03:06:43;2.03;;;0.90;;
41653;SDS011;30790;52.030;7.110;2022-09-01T03:09:10;1.75;;;0.73;;
41653;SDS011;30790;52.030;7.110;2022-09-01T03:11:39;1.75;;;0.85;;
41653;SDS011;30790;52.030;7.110;2022-09-01T03:14:06;0.70;;;0.70;;
41653;SDS011;30790;52.030;7.110;2022-09-01T03:16:32;1.13;;;0.70;;
41653;SDS011;30790;52.030;7.110;2022-09-01T03:18:59;1.08;;;0.80;;
41653;SDS011;30790;52.030;7.110;2022-09-01T03:21:27;1.00;;;0.90;;
41653;SDS011;30790;52.030;7.110;2022-09-01T03:23:53;0.60;;;0.57;;
41653;SDS011;30790;52.030;7.110;2022-09-01T03:26:19;0.50;;;0.50;;
41653;SDS011;30790;52.030;7.110;2022-09-01T03:28:46;1.40;;;0.80;;
41653;SDS011;30790;52.030;7.110;2022-09-01T03:31:13;0.88;;;0.80;;
41653;SDS011;30790;52.030;7.110;2022-09-01T03:33:39;1.13;;;0.63;;
41653;SDS011;30790;52.030;7.110;2022-09-01T03:36:05;0.60;;;0.60;;
41653;SDS011;30790;52.030;7.110;2022-09-01T03:38:31;1.20;;;0.55;;
41653;SDS011;30790;52.030;7.110;2022-09-01T03:41:01;0.95;;;0.80;;
41653;SDS011;30790;52.030;7.110;2022-09-01T03:43:30;1.05;;;0.82;;
41653;SDS011;30790;52.030;7.110;2022-09-01T03:45:57;1.50;;;0.70;;
41653;SDS011;30790;52.030;7.110;2022-09-01T03:48:27;0.85;;;0.60;;
41653;SDS011;30790;52.030;7.110;2022-09-01T03:50:53;0.80;;;0.50;;
41653;SDS011;30790;52.030;7.110;2022-09-01T03:53:21;0.68;;;0.60;;
41653;SDS011;30790;52.030;7.110;2022-09-01T03:55:51;1.23;;;0.88;;
41653;SDS011;30790;52.030;7.110;2022-09-01T03:58:18;1.25;;;0.70;;
41653;SDS011;30790;52.030;7.110;2022-09-01T04:00:45;0.60;;;0.60;;
41653;SDS011;30790;52.030;7.110;2022-09-01T04:03:13;1.00;;;0.88;;
41653;SDS011;30790;52.030;7.110;2022-09-01T04:05:42;1.55;;;0.98;;
41653;SDS011;30790;52.030;7.110;2022-09-01T04:08:09;0.68;;;0.60;;
41653;SDS011;30790;52.030;7.110;2022-09-01T04:10:47;1.00;;;0.77;;
41653;SDS011;30790;52.030;7.110;2022-09-01T04:15:43;1.88;;;0.90;;
41653;SDS011;30790;52.030;7.110;2022-09-01T04:18:09;1.80;;;0.70;;
41653;SDS011;30790;52.030;7.110;2022-09-01T04:20:43;0.95;;;0.77;;
41653;SDS011;30790;52.030;7.110;2022-09-01T04:25:47;0.65;;;0.65;;
41653;SDS011;30790;52.030;7.110;2022-09-01T04:28:14;0.60;;;0.50;;
41653;SDS011;30790;52.030;7.110;2022-09-01T04:30:47;1.40;;;0.90;;
41653;SDS011;30790;52.030;7.110;2022-09-01T04:33:14;1.55;;;0.77;;
41653;SDS011;30790;52.030;7.110;2022-09-01T04:35:42;1.75;;;0.90;;
41653;SDS011;30790;52.030;7.110;2022-09-01T04:38:07;1.00;;;0.60;;
41653;SDS011;30790;52.030;7.110;2022-09-01T04:40:39;0.65;;;0.63;;
41653;SDS011;30790;52.030;7.110;2022-09-01T04:43:06;1.00;;;0.90;;
41653;SDS011;30790;52.030;7.110;2022-09-01T04:45:33;2.90;;;0.90;;
41653;SDS011;30790;52.030;7.110;2022-09-01T04:48:00;3.17;;;1.15;;
41653;SDS011;30790;52.030;7.110;2022-09-01T04:50:27;3.78;;;1.33;;
41653;SDS011;30790;52.030;7.110;2022-09-01T04:52:54;1.90;;;1.10;;
41653;SDS011;30790;52.030;7.110;2022-09-01T04:55:27;2.15;;;0.98;;
41653;SDS011;30790;52.030;7.110;2022-09-01T04:57:54;2.30;;;0.90;;
41653;SDS011;30790;52.030;7.110;2022-09-01T05:00:22;5.03;;;1.42;;
41653;SDS011;30790;52.030;7.110;2022-09-01T05:02:49;7.07;;;1.52;;
41653;SDS011;30790;52.030;7.110;2022-09-01T05:05:28;5.43;;;1.10;;
41653;SDS011;30790;52.030;7.110;2022-09-01T05:08:03;2.40;;;1.25;;
41653;SDS011;30790;52.030;7.110;2022-09-01T05:10:28;2.22;;;1.08;;
41653;SDS011;30790;52.030;7.110;2022-09-01T05:12:54;5.00;;;1.58;;
41653;SDS011;30790;52.030;7.110;2022-09-01T05:15:21;4.20;;;1.75;;
41653;SDS011;30790;52.030;7.110;2022-09-01T05:17:47;2.05;;;1.35;;
41653;SDS011;30790;52.030;7.110;2022-09-01T05:20:13;14.30;;;1.73;;
41653;SDS011;30790;52.030;7.110;2022-09-01T05:22:38;4.55;;;1.17;;
41653;SDS011;30790;52.030;7.110;2022-09-01T05:25:05;10.43;;;1.30;;
41653;SDS011;30790;52.030;7.110;2022-09-01T05:27:41;6.07;;;1.60;;
41653;SDS011;30790;52.030;7.110;2022-09-01T05:30:13;4.47;;;1.50;;
41653;SDS011;30790;52.030;7.110;2022-09-01T05:32:41;3.88;;;1.50;;
41653;SDS011;30790;52.030;7.110;2022-09-01T05:35:07;17.85;;;1.90;;
41653;SDS011;30790;52.030;7.110;2022-09-01T05:37:34;6.05;;;1.63;;
41653;SDS011;30790;52.030;7.110;2022-09-01T05:40:01;5.95;;;1.75;;
41653;SDS011;30790;52.030;7.110;2022-09-01T05:42:31;6.00;;;1.88;;
41653;SDS011;30790;52.030;7.110;2022-09-01T05:44:57;10.20;;;1.92;;
41653;SDS011;30790;52.030;7.110;2022-09-01T05:47:24;13.77;;;2.42;;
41653;SDS011;30790;52.030;7.110;2022-09-01T05:49:50;19.60;;;3.60;;
41653;SDS011;30790;52.030;7.110;2022-09-01T05:52:17;42.58;;;4.22;;
41653;SDS011;30790;52.030;7.110;2022-09-01T05:54:44;14.32;;;2.80;;
41653;SDS011;30790;52.030;7.110;2022-09-01T05:57:11;10.00;;;2.50;;
41653;SDS011;30790;52.030;7.110;2022-09-01T05:59:37;18.70;;;3.72;;
41653;SDS011;30790;52.030;7.110;2022-09-01T06:02:05;15.45;;;3.10;;
41653;SDS011;30790;52.030;7.110;2022-09-01T06:04:32;23.42;;;2.95;;
41653;SDS011;30790;52.030;7.110;2022-09-01T06:06:59;11.77;;;2.42;;
41653;SDS011;30790;52.030;7.110;2022-09-01T06:09:25;18.98;;;3.03;;
41653;SDS011;30790;52.030;7.110;2022-09-01T06:11:51;12.90;;;2.25;;
41653;SDS011;30790;52.030;7.110;2022-09-01T06:14:19;9.90;;;2.50;;
41653;SDS011;30790;52.030;7.110;2022-09-01T06:16:44;10.73;;;2.58;;
41653;SDS011;30790;52.030;7.110;2022-09-01T06:19:11;16.90;;;3.03;;
41653;SDS011;30790;52.030;7.110;2022-09-01T06:21:37;22.25;;;2.67;;
41653;SDS011;30790;52.030;7.110;2022-09-01T06:24:03;21.40;;;3.30;;
41653;SDS011;30790;52.030;7.110;2022-09-01T06:26:32;17.63;;;2.58;;
41653;SDS011;30790;52.030;7.110;2022-09-01T06:29:08;16.67;;;2.00;;
41653;SDS011;30790;52.030;7.110;2022-09-01T06:31:39;10.70;;;2.22;;
41653;SDS011;30790;52.030;7.110;2022-09-01T06:34:09;8.20;;;2.47;;
41653;SDS011;30790;52.030;7.110;2022-09-01T06:36:41;12.85;;;2.30;;
41653;SDS011;30790;52.030;7.110;2022-09-01T06:39:07;11.30;;;2.28;;
41653;SDS011;30790;52.030;7.110;2022-09-01T06:41:33;10.60;;;2.22;;
41653;SDS011;30790;52.030;7.110;2022-09-01T06:44:01;21.42;;;2.75;;
41653;SDS011;30790;52.030;7.110;2022-09-01T06:46:26;9.32;;;2.28;;
41653;SDS011;30790;52.030;7.110;2022-09-01T06:48:52;8.40;;;1.63;;
41653;SDS011;30790;52.030;7.110;2022-09-01T06:51:20;7.65;;;2.35;;
41653;SDS011;30790;52.030;7.110;2022-09-01T06:53:48;7.28;;;2.25;;
41653;SDS011;30790;52.030;7.110;2022-09-01T06:56:20;8.50;;;1.90;;
41653;SDS011;30790;52.030;7.110;2022-09-01T06:58:54;5.55;;;1.50;;
41653;SDS011;30790;52.030;7.110;2022-09-01T07:01:20;8.88;;;1.80;;
41653;SDS011;30790;52.030;7.110;2022-09-01T07:03:49;7.43;;;1.88;;
41653;SDS011;30790;52.030;7.110;2022-09-01T07:06:17;11.18;;;2.15;;
41653;SDS011;30790;52.030;7.110;2022-09-01T07:08:44;3.95;;;1.48;;
41653;SDS011;30790;52.030;7.110;2022-09-01T07:11:20;7.57;;;1.50;;
41653;SDS011;30790;52.030;7.110;2022-09-01T07:13:52;6.68;;;1.75;;
41653;SDS011;30790;52.030;7.110;2022-09-01T07:16:21;10.00;;;2.25;;
41653;SDS011;30790;52.030;7.110;2022-09-01T07:18:49;7.22;;;1.85;;
41653;SDS011;30790;52.030;7.110;2022-09-01T07:21:16;13.05;;;2.15;;
41653;SDS011;30790;52.030;7.110;2022-09-01T07:23:42;7.82;;;1.63;;
41653;SDS011;30790;52.030;7.110;2022-09-01T07:26:08;9.77;;;1.75;;
41653;SDS011;30790;52.030;7.110;2022-09-01T07:28:34;6.95;;;1.92;;
41653;SDS011;30790;52.030;7.110;2022-09-01T07:31:00;13.13;;;2.22;;
41653;SDS011;30790;52.030;7.110;2022-09-01T07:33:29;3.53;;;1.50;;
41653;SDS011;30790;52.030;7.110;2022-09-01T07:35:56;7.95;;;2.00;;
41653;SDS011;30790;52.030;7.110;2022-09-01T07:38:23;11.50;;;1.95;;
41653;SDS011;30790;52.030;7.110;2022-09-01T07:40:49;8.77;;;1.90;;
41653;SDS011;30790;52.030;7.110;2022-09-01T07:43:22;4.43;;;1.60;;
41653;SDS011;30790;52.030;7.110;2022-09-01T07:45:51;8.82;;;1.92;;
41653;SDS011;30790;52.030;7.110;2022-09-01T07:48:20;11.65;;;2.13;;
41653;SDS011;30790;52.030;7.110;2022-09-01T07:50:47;4.25;;;1.67;;
41653;SDS011;30790;52.030;7.110;2022-09-01T07:53:17;7.00;;;1.55;;
41653;SDS011;30790;52.030;7.110;2022-09-01T07:55:46;6.90;;;1.95;;
41653;SDS011;30790;52.030;7.110;2022-09-01T07:58:15;5.80;;;1.52;;
41653;SDS011;30790;52.030;7.110;2022-09-01T08:00:41;10.05;;;2.13;;
41653;SDS011;30790;52.030;7.110;2022-09-01T08:03:13;9.30;;;2.28;;
41653;SDS011;30790;52.030;7.110;2022-09-01T08:05:40;6.70;;;1.90;;
41653;SDS011;30790;52.030;7.110;2022-09-01T08:08:05;10.25;;;2.08;;
41653;SDS011;30790;52.030;7.110;2022-09-01T08:10:31;7.35;;;2.47;;
41653;SDS011;30790;52.030;7.110;2022-09-01T08:12:57;11.13;;;2.03;;
41653;SDS011;30790;52.030;7.110;2022-09-01T08:15:23;8.75;;;2.42;;
41653;SDS011;30790;52.030;7.110;2022-09-01T08:17:49;8.88;;;2.33;;
41653;SDS011;30790;52.030;7.110;2022-09-01T08:20:14;9.00;;;1.85;;
41653;SDS011;30790;52.030;7.110;2022-09-01T08:22:40;7.18;;;1.95;;
41653;SDS011;30790;52.030;7.110;2022-09-01T08:25:06;6.65;;;2.13;;
41653;SDS011;30790;52.030;7.110;2022-09-01T08:27:33;6.97;;;1.70;;
41653;SDS011;30790;52.030;7.110;2022-09-01T08:30:01;7.65;;;2.08;;
41653;SDS011;30790;52.030;7.110;2022-09-01T08:32:28;4.20;;;2.05;;
41653;SDS011;30790;52.030;7.110;2022-09-01T08:34:54;3.97;;;1.58;;
41653;SDS011;30790;52.030;7.110;2022-09-01T08:37:21;6.20;;;1.83;;
41653;SDS011;30790;52.030;7.110;2022-09-01T08:39:46;6.65;;;1.95;;
41653;SDS011;30790;52.030;7.110;2022-09-01T08:48:00;6.43;;;1.65;;
41653;SDS011;30790;52.030;7.110;2022-09-01T08:50:37;6.05;;;1.67;;
41653;SDS011;30790;52.030;7.110;2022-09-01T08:53:05;6.78;;;2.00;;
41653;SDS011;30790;52.030;7.110;2022-09-01T08:55:42;5.97;;;1.45;;
41653;SDS011;30790;52.030;7.110;2022-09-01T08:58:09;10.82;;;2.15;;
41653;SDS011;30790;52.030;7.110;2022-09-01T09:00:43;5.50;;;2.03;;
41653;SDS011;30790;52.030;7.110;2022-09-01T09:03:17;5.43;;;1.92;;
41653;SDS011;30790;52.030;7.110;2022-09-01T09:06:02;3.95;;;1.52;;
41653;SDS011;30790;52.030;7.110;2022-09-01T09:14:02;6.95;;;1.80;;
41653;SDS011;30790;52.030;7.110;2022-09-01T09:16:39;5.63;;;1.85;;
41653;SDS011;30790;52.030;7.110;2022-09-01T09:19:15;7.82;;;1.63;;
41653;SDS011;30790;52.030;7.110;2022-09-01T09:21:46;3.72;;;1.80;;
41653;SDS011;30790;52.030;7.110;2022-09-01T09:24:30;5.97;;;1.95;;
41653;SDS011;30790;52.030;7.110;2022-09-01T09:29:49;3.58;;;1.98;;
41653;SDS011;30790;52.030;7.110;2022-09-01T09:32:16;10.20;;;2.10;;
41653;SDS011;30790;52.030;7.110;2022-09-01T09:34:42;5.43;;;1.85;;
41653;SDS011;30790;52.030;7.110;2022-09-01T09:37:28;11.45;;;2.55;;
41653;SDS011;30790;52.030;7.110;2022-09-01T09:47:51;10.88;;;2.90;;
41653;SDS011;30790;52.030;7.110;2022-09-01T09:50:29;7.00;;;2.03;;
41653;SDS011;30790;52.030;7.110;2022-09-01T09:53:13;7.72;;;1.65;;
41653;SDS011;30790;52.030;7.110;2022-09-01T09:58:18;8.43;;;2.00;;
41653;SDS011;30790;52.030;7.110;2022-09-01T10:01:07;7.88;;;2.55;;
41653;SDS011;30790;52.030;7.110;2022-09-01T10:04:00;10.70;;;2.05;;
41653;SDS011;30790;52.030;7.110;2022-09-01T10:09:00;6.05;;;1.85;;
41653;SDS011;30790;52.030;7.110;2022-09-01T10:13:59;6.20;;;2.30;;
41653;SDS011;30790;52.030;7.110;2022-09-01T10:16:26;6.80;;;2.03;;
41653;SDS011;30790;52.030;7.110;2022-09-01T10:18:55;12.55;;;2.00;;
41653;SDS011;30790;52.030;7.110;2022-09-01T10:21:38;8.18;;;2.47;;
41653;SDS011;30790;52.030;7.110;2022-09-01T10:24:24;5.18;;;2.03;;
41653;SDS011;30790;52.030;7.110;2022-09-01T10:27:01;7.18;;;2.00;;
41653;SDS011;30790;52.030;7.110;2022-09-01T10:29:41;20.02;;;2.53;;
41653;SDS011;30790;52.030;7.110;2022-09-01T10:32:11;24.30;;;2.28;;
41653;SDS011;30790;52.030;7.110;2022-09-01T10:34:42;16.05;;;2.50;;
41653;SDS011;30790;52.030;7.110;2022-09-01T10:37:08;6.07;;;0.98;;
41653;SDS011;30790;52.030;7.110;2022-09-01T10:39:40;12.68;;;2.65;;
41653;SDS011;30790;52.030;7.110;2022-09-01T10:42:39;24.33;;;3.97;;
41653;SDS011;30790;52.030;7.110;2022-09-01T10:45:07;29.33;;;3.45;;
41653;SDS011;30790;52.030;7.110;2022-09-01T10:50:45;47.83;;;5.40;;
41653;SDS011;30790;52.030;7.110;2022-09-01T10:56:00;22.95;;;3.88;;
41653;SDS011;30790;52.030;7.110;2022-09-01T10:58:34;32.10;;;4.13;;
41653;SDS011;30790;52.030;7.110;2022-09-01T11:01:07;29.77;;;4.88;;
41653;SDS011;30790;52.030;7.110;2022-09-01T11:03:34;35.05;;;4.90;;
41653;SDS011;30790;52.030;7.110;2022-09-01T11:08:39;26.00;;;4.38;;
41653;SDS011;30790;52.030;7.110;2022-09-01T11:11:14;27.40;;;4.25;;
41653;SDS011;30790;52.030;7.110;2022-09-01T11:13:45;18.10;;;4.28;;
41653;SDS011;30790;52.030;7.110;2022-09-01T11:16:27;29.08;;;4.43;;
41653;SDS011;30790;52.030;7.110;2022-09-01T11:21:47;24.60;;;4.25;;
41653;SDS011;30790;52.030;7.110;2022-09-01T11:27:07;18.77;;;3.17;;
41653;SDS011;30790;52.030;7.110;2022-09-01T11:29:50;32.88;;;4.40;;
41653;SDS011;30790;52.030;7.110;2022-09-01T11:32:19;28.20;;;3.65;;
41653;SDS011;30790;52.030;7.110;2022-09-01T11:34:48;34.20;;;5.30;;
41653;SDS011;30790;52.030;7.110;2022-09-01T11:37:16;29.52;;;4.88;;
41653;SDS011;30790;52.030;7.110;2022-09-01T11:39:47;38.47;;;4.32;;
41653;SDS011;30790;52.030;7.110;2022-09-01T11:42:27;24.02;;;4.50;;
41653;SDS011;30790;52.030;7.110;2022-09-01T11:45:06;24.63;;;4.32;;
41653;SDS011;30790;52.030;7.110;2022-09-01T11:47:41;20.73;;;3.63;;
41653;SDS011;30790;52.030;7.110;2022-09-01T11:50:31;30.85;;;4.28;;
41653;SDS011;30790;52.030;7.110;2022-09-01T11:55:48;19.92;;;3.53;;
41653;SDS011;30790;52.030;7.110;2022-09-01T12:00:56;16.42;;;3.22;;
41653;SDS011;30790;52.030;7.110;2022-09-01T12:03:36;22.73;;;3.70;;
41653;SDS011;30790;52.030;7.110;2022-09-01T12:06:03;17.15;;;3.30;;
41653;SDS011;30790;52.030;7.110;2022-09-01T12:08:31;24.88;;;4.03;;
41653;SDS011;30790;52.030;7.110;2022-09-01T12:13:32;12.55;;;3.30;;
41653;SDS011;30790;52.030;7.110;2022-09-01T12:15:59;17.58;;;2.35;;
41653;SDS011;30790;52.030;7.110;2022-09-01T12:18:28;18.15;;;3.65;;
41653;SDS011;30790;52.030;7.110;2022-09-01T12:20:56;18.48;;;2.88;;
41653;SDS011;30790;52.030;7.110;2022-09-01T12:23:30;13.07;;;1.88;;
41653;SDS011;30790;52.030;7.110;2022-09-01T12:26:04;11.43;;;1.95;;
41653;SDS011;30790;52.030;7.110;2022-09-01T12:28:35;11.32;;;2.78;;
41653;SDS011;30790;52.030;7.110;2022-09-01T12:31:04;17.88;;;2.70;;
41653;SDS011;30790;52.030;7.110;2022-09-01T12:33:32;19.60;;;2.60;;
41653;SDS011;30790;52.030;7.110;2022-09-01T12:38:55;18.55;;;2.92;;
41653;SDS011;30790;52.030;7.110;2022-09-01T12:47:02;142.98;;;16.73;;
41653;SDS011;30790;52.030;7.110;2022-09-01T12:49:35;212.40;;;18.77;;
41653;SDS011;30790;52.030;7.110;2022-09-01T12:54:43;64.10;;;7.10;;
41653;SDS011;30790;52.030;7.110;2022-09-01T12:57:10;65.07;;;7.43;;
41653;SDS011;30790;52.030;7.110;2022-09-01T12:59:46;78.18;;;9.10;;
41653;SDS011;30790;52.030;7.110;2022-09-01T13:02:32;86.93;;;12.93;;
41653;SDS011;30790;52.030;7.110;2022-09-01T13:07:53;70.30;;;9.13;;
41653;SDS011;30790;52.030;7.110;2022-09-01T13:10:19;91.40;;;9.02;;
41653;SDS011;30790;52.030;7.110;2022-09-01T13:12:46;58.63;;;7.80;;
41653;SDS011;30790;52.030;7.110;2022-09-01T13:15:12;94.35;;;9.40;;
41653;SDS011;30790;52.030;7.110;2022-09-01T13:17:38;58.15;;;8.15;;
41653;SDS011;30790;52.030;7.110;2022-09-01T13:20:06;79.43;;;9.40;;
41653;SDS011;30790;52.030;7.110;2022-09-01T13:22:32;71.00;;;9.88;;
41653;SDS011;30790;52.030;7.110;2022-09-01T13:24:59;71.57;;;8.32;;
41653;SDS011;30790;52.030;7.110;2022-09-01T13:27:24;64.72;;;7.80;;
41653;SDS011;30790;52.030;7.110;2022-09-01T13:29:50;52.80;;;7.38;;
41653;SDS011;30790;52.030;7.110;2022-09-01T13:32:17;58.17;;;8.48;;
41653;SDS011;30790;52.030;7.110;2022-09-01T13:34:43;46.90;;;6.35;;
41653;SDS011;30790;52.030;7.110;2022-09-01T13:37:08;45.88;;;6.70;;
41653;SDS011;30790;52.030;7.110;2022-09-01T13:39:33;48.95;;;6.38;;
41653;SDS011;30790;52.030;7.110;2022-09-01T13:41:59;55.80;;;7.15;;
41653;SDS011;30790;52.030;7.110;2022-09-01T13:44:24;48.28;;;5.65;;
41653;SDS011;30790;52.030;7.110;2022-09-01T13:46:49;57.08;;;6.80;;
41653;SDS011;30790;52.030;7.110;2022-09-01T13:49:15;51.58;;;8.38;;
41653;SDS011;30790;52.030;7.110;2022-09-01T13:51:40;46.70;;;7.93;;
41653;SDS011;30790;52.030;7.110;2022-09-01T13:54:05;49.22;;;6.63;;
41653;SDS011;30790;52.030;7.110;2022-09-01T13:56:30;47.13;;;7.00;;
41653;SDS011;30790;52.030;7.110;2022-09-01T13:58:56;45.33;;;6.88;;
41653;SDS011;30790;52.030;7.110;2022-09-01T14:01:21;40.77;;;6.70;;
41653;SDS011;30790;52.030;7.110;2022-09-01T14:03:47;40.30;;;4.57;;
41653;SDS011;30790;52.030;7.110;2022-09-01T14:06:13;36.65;;;6.47;;
41653;SDS011;30790;52.030;7.110;2022-09-01T14:08:39;59.47;;;6.72;;
41653;SDS011;30790;52.030;7.110;2022-09-01T14:11:04;56.90;;;8.38;;
41653;SDS011;30790;52.030;7.110;2022-09-01T14:13:29;65.65;;;7.65;;
41653;SDS011;30790;52.030;7.110;2022-09-01T14:15:56;65.93;;;8.35;;
41653;SDS011;30790;52.030;7.110;2022-09-01T14:18:22;47.45;;;6.57;;
41653;SDS011;30790;52.030;7.110;2022-09-01T14:20:49;43.45;;;7.55;;
41653;SDS011;30790;52.030;7.110;2022-09-01T14:23:15;58.45;;;6.97;;
41653;SDS011;30790;52.030;7.110;2022-09-01T14:25:49;49.95;;;6.97;;
41653;SDS011;30790;52.030;7.110;2022-09-01T14:28:15;39.88;;;6.35;;
41653;SDS011;30790;52.030;7.110;2022-09-01T14:30:41;38.80;;;6.32;;
41653;SDS011;30790;52.030;7.110;2022-09-01T14:33:08;45.85;;;6.35;;
41653;SDS011;30790;52.030;7.110;2022-09-01T14:35:36;31.75;;;6.40;;
41653;SDS011;30790;52.030;7.110;2022-09-01T14:38:03;33.33;;;5.82;;
41653;SDS011;30790;52.030;7.110;2022-09-01T14:40:32;31.25;;;6.07;;
41653;SDS011;30790;52.030;7.110;2022-09-01T14:42:57;41.50;;;6.10;;
41653;SDS011;30790;52.030;7.110;2022-09-01T14:45:25;36.20;;;5.43;;
41653;SDS011;30790;52.030;7.110;2022-09-01T14:47:53;35.60;;;6.63;;
41653;SDS011;30790;52.030;7.110;2022-09-01T14:50:22;37.97;;;5.82;;
41653;SDS011;30790;52.030;7.110;2022-09-01T14:52:50;32.03;;;4.90;;
41653;SDS011;30790;52.030;7.110;2022-09-01T14:55:19;28.00;;;5.15;;
41653;SDS011;30790;52.030;7.110;2022-09-01T14:57:48;14.63;;;3.60;;
41653;SDS011;30790;52.030;7.110;2022-09-01T15:00:14;17.67;;;2.92;;
41653;SDS011;30790;52.030;7.110;2022-09-01T15:02:41;10.55;;;2.47;;
41653;SDS011;30790;52.030;7.110;2022-09-01T15:05:07;18.05;;;3.95;;
41653;SDS011;30790;52.030;7.110;2022-09-01T15:07:33;14.52;;;2.67;;
41653;SDS011;30790;52.030;7.110;2022-09-01T15:09:59;18.05;;;3.17;;
41653;SDS011;30790;52.030;7.110;2022-09-01T15:12:24;16.35;;;3.05;;
41653;SDS011;30790;52.030;7.110;2022-09-01T15:14:54;15.75;;;3.67;;
41653;SDS011;30790;52.030;7.110;2022-09-01T15:17:20;21.23;;;3.33;;
41653;SDS011;30790;52.030;7.110;2022-09-01T15:19:45;15.00;;;2.90;;
41653;SDS011;30790;52.030;7.110;2022-09-01T15:22:10;18.52;;;3.35;;
41653;SDS011;30790;52.030;7.110;2022-09-01T15:24:38;15.90;;;2.97;;
41653;SDS011;30790;52.030;7.110;2022-09-01T15:27:04;31.17;;;4.68;;
41653;SDS011;30790;52.030;7.110;2022-09-01T15:29:30;36.38;;;4.72;;
41653;SDS011;30790;52.030;7.110;2022-09-01T15:31:58;25.95;;;3.72;;
41653;SDS011;30790;52.030;7.110;2022-09-01T15:34:24;20.38;;;3.40;;
41653;SDS011;30790;52.030;7.110;2022-09-01T15:36:49;14.27;;;2.30;;
41653;SDS011;30790;52.030;7.110;2022-09-01T15:39:14;13.88;;;1.95;;
41653;SDS011;30790;52.030;7.110;2022-09-01T15:41:42;15.80;;;2.90;;
41653;SDS011;30790;52.030;7.110;2022-09-01T15:44:08;16.88;;;2.63;;
41653;SDS011;30790;52.030;7.110;2022-09-01T15:46:34;10.52;;;2.22;;
41653;SDS011;30790;52.030;7.110;2022-09-01T15:49:03;10.07;;;2.17;;
41653;SDS011;30790;52.030;7.110;2022-09-01T15:51:31;19.40;;;2.90;;
41653;SDS011;30790;52.030;7.110;2022-09-01T15:54:01;14.85;;;2.38;;
41653;SDS011;30790;52.030;7.110;2022-09-01T15:56:31;15.40;;;2.95;;
41653;SDS011;30790;52.030;7.110;2022-09-01T15:58:57;22.33;;;2.60;;
41653;SDS011;30790;52.030;7.110;2022-09-01T16:01:24;10.70;;;2.08;;
41653;SDS011;30790;52.030;7.110;2022-09-01T16:03:50;11.05;;;2.08;;
41653;SDS011;30790;52.030;7.110;2022-09-01T16:06:17;10.07;;;2.55;;
41653;SDS011;30790;52.030;7.110;2022-09-01T16:08:42;27.83;;;3.72;;